Portada
METAR-TAF:

METAR-TAF

Aeroports :

Aeroport de Santiago de Compostel·la

Santiago de Compostel·la, Espanya

latitud: 42-54N, longitud: 008-26W, altitud: 370 m

Observació

L'informe es va fer fa 6 hores i 40 minuts, a les 05:00 UTC
Vent 6 kt del Est, variant entre Est/Nord-Est i Sud-Est
Temperatura 18°C
Humitat 83%
Pressió 1017 hPa
Visibilitat 10 km o més
sense núvols per sota de 1500 mi sense presència de cumulonimbus.

METAR: LEST 210500Z 09006KT 070V130 CAVOK 18/15 Q1017 NOSIG

Hora: 13:40 (11:40 UTC)

Pronòstic

L'informe es va fer fa 6 hores i 40 minuts, a les 05:00 UTC
Pronòstic vàlid del 21 a les 06 UTC al 22 a les 06 UTC
Vent 6 kt del Nord/Nord-Est
Visibilitat 10 km o més
sense núvols per sota de 1500 mi sense presència de cumulonimbus.

TAF: LEST 210500Z 2106/2206 03006KT CAVOK TX33/2115Z TN16/2206Z

Observacions i pronòstics meteorològics de més de 4000 aeroports (METAR i TAF).

Les estacions disponibles són els punts grocs i vermells al mapa.

Posi el ratolí al punt desitjat per veure el nom de l'estació.

Feu clic per veure les observacions i els pronòstics meteorològics.

Per canviar el mapa: feu clic els botons verds amb una creu de color negre per apropar; al botó verd amb un guió per allunyar la imatge; o en les fletxes verdes per a mapes adjacents.


METAR-TAF: